createdAt,value
2023-03-05T00:00:20.722Z,14.30
2023-03-05T00:01:24.597Z,13.60
2023-03-05T00:02:01.633Z,16.20
2023-03-05T00:02:35.754Z,16.70
2023-03-05T00:03:09.646Z,14.60
2023-03-05T00:03:43.573Z,16.90
2023-03-05T00:04:17.561Z,16.00
2023-03-05T00:04:51.572Z,17.80
2023-03-05T00:05:25.463Z,14.00
2023-03-05T00:05:59.682Z,15.30
2023-03-05T00:06:34.695Z,14.20
2023-03-05T00:07:12.452Z,17.20
2023-03-05T00:07:47.100Z,16.90
2023-03-05T00:08:21.067Z,13.30
2023-03-05T00:08:56.941Z,15.10
2023-03-05T00:09:31.150Z,13.80
2023-03-05T00:10:06.642Z,15.90
2023-03-05T00:10:44.975Z,17.00
2023-03-05T00:11:18.971Z,17.30
2023-03-05T00:11:54.181Z,14.80
2023-03-05T00:12:28.130Z,14.00
2023-03-05T00:13:05.030Z,14.70
2023-03-05T00:13:39.300Z,17.80
2023-03-05T00:14:13.458Z,17.00
2023-03-05T00:14:47.618Z,17.10
2023-03-05T00:15:21.692Z,17.80
2023-03-05T00:15:56.338Z,14.40
2023-03-05T00:16:30.996Z,16.40
2023-03-05T00:17:04.836Z,13.80
2023-03-05T00:17:38.920Z,13.70
2023-03-05T00:18:15.193Z,15.50
2023-03-05T00:18:50.449Z,17.40
2023-03-05T00:19:24.475Z,14.80
2023-03-05T00:20:08.693Z,11.10
2023-03-05T00:20:42.582Z,16.90
2023-03-05T00:21:29.995Z,17.80
2023-03-05T00:22:03.972Z,12.50
2023-03-05T00:22:38.068Z,14.30
2023-03-05T00:23:12.165Z,11.80
2023-03-05T00:23:46.136Z,14.90
2023-03-05T00:24:19.862Z,16.80
2023-03-05T00:24:53.823Z,18.10
2023-03-05T00:25:27.725Z,13.70
2023-03-05T00:26:05.594Z,12.50
2023-03-05T00:26:39.990Z,13.90
2023-03-05T00:27:13.661Z,13.40
2023-03-05T00:27:47.616Z,16.20
2023-03-05T00:28:24.041Z,14.30
2023-03-05T00:29:00.974Z,15.70
2023-03-05T00:29:34.679Z,15.60
2023-03-05T00:30:09.814Z,16.00
2023-03-05T00:30:43.546Z,14.90
2023-03-05T00:31:18.772Z,14.70
2023-03-05T00:31:55.595Z,14.50
2023-03-05T00:32:29.673Z,12.80
2023-03-05T00:33:03.479Z,13.00
2023-03-05T00:33:37.365Z,14.40
2023-03-05T00:34:14.665Z,17.00
2023-03-05T00:34:50.284Z,14.50
2023-03-05T00:35:24.123Z,15.40
2023-03-05T00:35:58.873Z,14.40
2023-03-05T00:36:33.185Z,15.80
2023-03-05T00:37:06.995Z,13.80
2023-03-05T00:37:40.674Z,16.50
2023-03-05T00:38:14.296Z,16.00
2023-03-05T00:38:48.672Z,15.80
2023-03-05T00:39:22.431Z,16.50
2023-03-05T00:39:55.930Z,16.10
2023-03-05T00:40:29.575Z,13.40
2023-03-05T00:41:03.987Z,14.30
2023-03-05T00:41:57.804Z,11.00
2023-03-05T00:42:31.450Z,14.30
2023-03-05T00:43:06.414Z,14.90
2023-03-05T00:43:40.120Z,15.50
2023-03-05T00:44:16.802Z,15.60
2023-03-05T00:44:50.712Z,17.10
2023-03-05T00:45:24.483Z,14.90
2023-03-05T00:45:59.535Z,16.20
2023-03-05T00:46:33.169Z,17.20
2023-03-05T00:47:07.107Z,15.20
2023-03-05T00:47:40.791Z,17.20
2023-03-05T00:48:14.380Z,16.60
2023-03-05T00:48:49.470Z,12.50
2023-03-05T00:49:23.414Z,15.40
2023-03-05T00:49:58.862Z,13.70
2023-03-05T00:50:32.772Z,15.50
2023-03-05T00:51:06.638Z,15.70
2023-03-05T00:51:41.717Z,14.70
2023-03-05T00:52:15.447Z,15.10
2023-03-05T00:52:49.692Z,15.10
2023-03-05T00:53:23.766Z,14.90
2023-03-05T00:53:57.968Z,15.50
2023-03-05T00:54:33.822Z,16.80
2023-03-05T00:55:07.753Z,14.80
2023-03-05T00:55:43.859Z,15.70
2023-03-05T00:56:17.482Z,13.50
2023-03-05T00:56:51.186Z,15.80
2023-03-05T00:57:24.958Z,16.20
2023-03-05T00:57:58.724Z,16.70
2023-03-05T00:58:32.397Z,14.90
2023-03-05T00:59:06.025Z,11.70
2023-03-05T00:59:39.654Z,17.80
2023-03-05T01:00:15.701Z,12.40
2023-03-05T01:00:50.946Z,16.70
2023-03-05T01:01:28.636Z,13.10
2023-03-05T01:02:02.669Z,15.60
2023-03-05T01:02:36.333Z,17.10
2023-03-05T01:03:10.034Z,17.70
2023-03-05T01:03:43.813Z,17.80
2023-03-05T01:04:17.466Z,17.40
2023-03-05T01:04:51.206Z,16.90
2023-03-05T01:05:25.215Z,18.30
2023-03-05T01:06:00.403Z,16.70
2023-03-05T01:06:33.970Z,17.40
2023-03-05T01:07:07.853Z,17.30
2023-03-05T01:07:41.725Z,12.50
2023-03-05T01:08:16.143Z,15.20
2023-03-05T01:08:49.794Z,17.50
2023-03-05T01:09:25.566Z,18.10
2023-03-05T01:09:59.201Z,16.80
2023-03-05T01:10:32.753Z,15.30
2023-03-05T01:11:08.079Z,17.90
2023-03-05T01:11:41.664Z,15.30
2023-03-05T01:12:15.978Z,18.40
2023-03-05T01:12:50.075Z,14.70
2023-03-05T01:13:23.554Z,16.10
2023-03-05T01:13:56.949Z,16.70
2023-03-05T01:14:32.576Z,16.80
2023-03-05T01:15:09.542Z,16.10
2023-03-05T01:15:47.311Z,14.10
2023-03-05T01:16:20.900Z,15.70
2023-03-05T01:16:54.963Z,18.20
2023-03-05T01:17:28.679Z,14.10
2023-03-05T01:18:02.460Z,13.00
2023-03-05T01:18:37.344Z,15.70
2023-03-05T01:19:11.595Z,16.90
2023-03-05T01:19:45.137Z,14.00
2023-03-05T01:20:21.019Z,16.90
2023-03-05T01:20:54.999Z,16.20
2023-03-05T01:21:28.876Z,18.00
2023-03-05T01:22:02.736Z,17.80
2023-03-05T01:22:36.499Z,18.60
2023-03-05T01:23:12.819Z,17.10
2023-03-05T01:23:46.876Z,15.90
2023-03-05T01:24:20.704Z,18.70
2023-03-05T01:24:57.399Z,16.80
2023-03-05T01:25:31.808Z,16.70
2023-03-05T01:26:06.666Z,17.20
2023-03-05T01:26:40.413Z,17.60
2023-03-05T01:27:14.146Z,16.70
2023-03-05T01:27:47.980Z,16.00
2023-03-05T01:28:24.796Z,14.20
2023-03-05T01:28:58.705Z,15.20
2023-03-05T01:29:32.606Z,17.00
2023-03-05T01:30:08.073Z,14.40
2023-03-05T01:30:44.015Z,16.00
2023-03-05T01:31:17.810Z,14.90
2023-03-05T01:31:51.783Z,17.30
2023-03-05T01:32:25.533Z,13.70
2023-03-05T01:32:59.366Z,16.40
2023-03-05T01:33:33.290Z,17.10
2023-03-05T01:34:07.193Z,18.40
2023-03-05T01:34:46.455Z,17.60
2023-03-05T01:35:23.283Z,13.60
2023-03-05T01:35:57.273Z,17.80
2023-03-05T01:36:32.259Z,14.80
2023-03-05T01:37:05.947Z,17.60
2023-03-05T01:37:39.893Z,17.10
2023-03-05T01:38:14.247Z,16.90
2023-03-05T01:38:48.353Z,17.10
2023-03-05T01:39:22.021Z,16.70
2023-03-05T01:40:01.466Z,16.80
2023-03-05T01:40:35.190Z,15.80
2023-03-05T01:41:10.316Z,17.20
2023-03-05T01:41:44.267Z,17.60
2023-03-05T01:42:19.640Z,17.40
2023-03-05T01:43:13.108Z,12.90
2023-03-05T01:43:48.144Z,14.90
2023-03-05T01:44:25.517Z,16.30
2023-03-05T01:45:12.815Z,16.50
2023-03-05T01:46:23.914Z,16.20
2023-03-05T01:46:57.618Z,14.80
2023-03-05T01:47:31.497Z,17.70
2023-03-05T01:48:05.146Z,17.20
2023-03-05T01:48:42.780Z,17.30
2023-03-05T01:49:28.550Z,15.10
2023-03-05T01:50:02.417Z,16.80
2023-03-05T01:50:37.938Z,16.30
2023-03-05T01:51:12.085Z,15.50
2023-03-05T01:52:24.487Z,16.90
2023-03-05T01:53:07.260Z,14.20
2023-03-05T01:53:42.156Z,12.20
2023-03-05T01:54:19.913Z,14.90
2023-03-05T01:55:07.718Z,16.00
2023-03-05T01:55:41.858Z,14.60
2023-03-05T01:56:17.372Z,15.50
2023-03-05T01:56:57.359Z,17.40
2023-03-05T01:57:38.340Z,15.80
2023-03-05T01:58:15.067Z,14.90
2023-03-05T01:58:49.744Z,14.90
2023-03-05T01:59:25.992Z,14.90
2023-03-05T02:00:10.500Z,13.30
2023-03-05T02:00:48.802Z,13.80
2023-03-05T02:01:22.641Z,13.00
2023-03-05T02:01:58.361Z,12.20
2023-03-05T02:02:33.225Z,13.70
2023-03-05T02:03:10.975Z,14.90
2023-03-05T02:03:46.793Z,15.40
2023-03-05T02:04:24.228Z,15.30
2023-03-05T02:05:04.496Z,12.70
2023-03-05T02:05:41.511Z,13.40
2023-03-05T02:06:17.771Z,11.60
2023-03-05T02:06:51.451Z,14.60
2023-03-05T02:07:25.812Z,11.20
2023-03-05T02:08:06.634Z,12.10
2023-03-05T02:08:40.373Z,12.00
2023-03-05T02:09:14.299Z,11.60
2023-03-05T02:09:48.117Z,11.40
2023-03-05T02:10:26.038Z,9.10
2023-03-05T02:11:00.730Z,13.00
2023-03-05T02:11:35.679Z,14.10
2023-03-05T02:12:12.111Z,13.00
2023-03-05T02:12:47.244Z,13.90
2023-03-05T02:13:24.579Z,12.40
2023-03-05T02:13:58.985Z,11.10
2023-03-05T02:14:33.911Z,13.60
2023-03-05T02:15:08.303Z,13.40
2023-03-05T02:15:42.945Z,14.00
2023-03-05T02:16:16.677Z,12.80
2023-03-05T02:16:51.110Z,14.30
2023-03-05T02:17:26.988Z,11.60
2023-03-05T02:18:01.681Z,13.90
2023-03-05T02:18:35.643Z,12.30
2023-03-05T02:19:12.965Z,13.60
2023-03-05T02:19:52.519Z,13.00
2023-03-05T02:20:30.099Z,13.70
2023-03-05T02:21:08.766Z,14.60
2023-03-05T02:21:47.838Z,13.10
2023-03-05T02:22:24.569Z,10.90
2023-03-05T02:22:58.783Z,11.10
2023-03-05T02:23:36.680Z,13.40
2023-03-05T02:24:13.197Z,12.40
2023-03-05T02:24:47.354Z,12.90
2023-03-05T02:25:26.104Z,13.20
2023-03-05T02:26:00.224Z,11.90
2023-03-05T02:26:34.146Z,12.90
2023-03-05T02:27:07.866Z,13.50
2023-03-05T02:27:43.289Z,15.10
2023-03-05T02:28:32.035Z,11.80
2023-03-05T02:29:08.522Z,13.70
2023-03-05T02:29:45.364Z,12.90
2023-03-05T02:30:19.962Z,12.70
2023-03-05T02:30:53.829Z,12.20
2023-03-05T02:31:28.411Z,11.10
2023-03-05T02:32:02.659Z,10.80
2023-03-05T02:32:37.020Z,12.90
2023-03-05T02:33:11.670Z,12.70
2023-03-05T02:33:46.150Z,12.50
2023-03-05T02:34:20.199Z,11.30
2023-03-05T02:34:53.988Z,15.30
2023-03-05T02:35:28.117Z,12.70
2023-03-05T02:36:01.771Z,15.10
2023-03-05T02:36:37.783Z,13.50
2023-03-05T02:37:11.470Z,13.50
2023-03-05T02:37:45.597Z,14.40
2023-03-05T02:38:21.957Z,14.30
2023-03-05T02:38:57.359Z,15.30
2023-03-05T02:39:32.466Z,12.60
2023-03-05T02:40:07.368Z,13.90
2023-03-05T02:40:41.139Z,15.30
2023-03-05T02:41:16.080Z,13.20
2023-03-05T02:41:49.784Z,12.80
2023-03-05T02:42:23.522Z,14.90
2023-03-05T02:42:57.402Z,12.10
2023-03-05T02:43:31.679Z,13.80
2023-03-05T02:44:05.625Z,12.30
2023-03-05T02:44:39.400Z,15.70
2023-03-05T02:45:14.031Z,15.50
2023-03-05T02:45:47.987Z,15.80
2023-03-05T02:46:22.857Z,15.40
2023-03-05T02:46:56.545Z,17.50
2023-03-05T02:47:34.077Z,14.30
2023-03-05T02:48:07.971Z,11.50
2023-03-05T02:48:41.646Z,14.20
2023-03-05T02:51:18.976Z,10.80
2023-03-05T02:51:53.249Z,15.10
2023-03-05T02:52:27.096Z,13.30
2023-03-05T02:53:00.533Z,14.80
2023-03-05T02:53:35.555Z,16.60
2023-03-05T02:54:09.150Z,17.00
2023-03-05T02:54:42.810Z,15.10
2023-03-05T02:55:16.326Z,13.20
2023-03-05T02:55:50.695Z,16.40
2023-03-05T02:56:24.222Z,14.60
2023-03-05T02:56:57.567Z,12.40
2023-03-05T02:57:31.173Z,14.60
2023-03-05T02:58:04.793Z,15.10
2023-03-05T02:58:38.483Z,15.50
2023-03-05T02:59:12.225Z,15.60
2023-03-05T02:59:47.008Z,15.00
2023-03-05T03:00:20.746Z,16.00
2023-03-05T03:00:54.188Z,13.20
2023-03-05T03:01:29.945Z,16.00
2023-03-05T03:02:04.083Z,15.70
2023-03-05T03:02:48.423Z,16.80
2023-03-05T03:03:22.094Z,15.80
2023-03-05T03:03:55.732Z,16.80
2023-03-05T03:04:29.205Z,13.70
2023-03-05T03:05:02.707Z,14.40
2023-03-05T03:05:37.233Z,14.80
2023-03-05T03:06:10.755Z,15.10
2023-03-05T03:06:44.236Z,13.10
2023-03-05T03:07:17.853Z,15.20
2023-03-05T03:07:51.310Z,11.80
2023-03-05T03:08:24.708Z,15.10
2023-03-05T03:08:58.624Z,17.20
2023-03-05T03:09:35.009Z,13.90
2023-03-05T03:10:09.186Z,14.60
2023-03-05T03:10:42.597Z,14.90
2023-03-05T03:11:16.162Z,14.60
2023-03-05T03:11:49.609Z,14.00
2023-03-05T03:12:23.321Z,17.00
2023-03-05T03:12:56.796Z,17.70
2023-03-05T03:13:30.270Z,16.50
2023-03-05T03:14:04.202Z,17.00
2023-03-05T03:14:41.447Z,14.70
2023-03-05T03:15:17.126Z,10.60
2023-03-05T03:15:51.211Z,12.80
2023-03-05T03:16:24.662Z,15.70
2023-03-05T03:16:59.062Z,13.30
2023-03-05T03:17:35.789Z,15.80
2023-03-05T03:18:11.777Z,14.90
2023-03-05T03:18:47.729Z,13.50
2023-03-05T03:19:21.062Z,16.10
2023-03-05T03:19:54.480Z,12.80
2023-03-05T03:20:27.971Z,14.40
2023-03-05T03:21:07.315Z,16.60
2023-03-05T03:21:40.872Z,14.30
2023-03-05T03:22:16.443Z,15.10
2023-03-05T03:22:49.960Z,13.10
2023-03-05T03:23:23.517Z,13.50
2023-03-05T03:23:57.117Z,13.50
2023-03-05T03:24:32.118Z,12.20
2023-03-05T03:25:06.603Z,15.40
2023-03-05T03:25:40.130Z,12.70
2023-03-05T03:26:13.714Z,14.10
2023-03-05T03:26:48.272Z,15.90
2023-03-05T03:27:21.832Z,15.40
2023-03-05T03:27:55.274Z,15.60
2023-03-05T03:28:28.707Z,15.70
2023-03-05T03:29:02.317Z,14.00
2023-03-05T03:29:36.733Z,14.60
2023-03-05T03:30:11.593Z,15.10
2023-03-05T03:30:45.231Z,10.70
2023-03-05T03:31:18.819Z,16.20
2023-03-05T03:31:56.867Z,16.00
2023-03-05T03:32:32.425Z,14.90
2023-03-05T03:33:05.912Z,13.60
2023-03-05T03:33:39.443Z,13.50
2023-03-05T03:34:15.295Z,15.40
2023-03-05T03:34:48.801Z,13.20
2023-03-05T03:35:22.313Z,15.20
2023-03-05T03:35:55.737Z,14.70
2023-03-05T03:36:29.037Z,15.70
2023-03-05T03:37:02.494Z,15.10
2023-03-05T03:37:37.515Z,12.40
2023-03-05T03:38:12.801Z,12.10
2023-03-05T03:38:46.226Z,10.80
2023-03-05T03:39:20.949Z,12.20
2023-03-05T03:39:54.401Z,14.40
2023-03-05T03:40:28.009Z,14.70
2023-03-05T03:41:02.588Z,14.50
2023-03-05T03:41:47.221Z,15.20
2023-03-05T03:42:22.340Z,13.70
2023-03-05T03:42:55.930Z,9.60
2023-03-05T03:43:32.628Z,11.70
2023-03-05T03:44:09.129Z,13.90
2023-03-05T03:44:45.100Z,11.40
2023-03-05T03:45:19.301Z,14.10
2023-03-05T03:45:52.863Z,12.60
2023-03-05T03:46:26.478Z,13.30
2023-03-05T03:47:00.205Z,13.90
2023-03-05T03:47:39.017Z,14.90
2023-03-05T03:48:12.926Z,13.00
2023-03-05T03:48:50.841Z,14.80
2023-03-05T03:49:26.296Z,13.10
2023-03-05T03:49:59.962Z,14.20
2023-03-05T03:50:33.439Z,13.30
2023-03-05T03:51:08.239Z,12.90
2023-03-05T03:51:42.017Z,14.40
2023-03-05T03:52:15.637Z,14.00
2023-03-05T03:52:49.098Z,12.90
2023-03-05T03:53:22.587Z,13.20
2023-03-05T03:53:56.902Z,13.80
2023-03-05T03:54:34.036Z,11.80
2023-03-05T03:55:07.896Z,11.90
2023-03-05T03:55:46.876Z,13.90
2023-03-05T03:56:20.558Z,13.60
2023-03-05T03:56:54.129Z,13.70
2023-03-05T03:57:29.171Z,12.90
2023-03-05T03:58:03.759Z,13.40
2023-03-05T03:58:37.219Z,12.80
2023-03-05T03:59:11.252Z,13.90
2023-03-05T03:59:46.324Z,12.50
2023-03-05T04:00:20.186Z,13.10
2023-03-05T04:00:53.686Z,14.00
2023-03-05T04:01:27.177Z,13.50
2023-03-05T04:02:00.834Z,11.90
2023-03-05T04:02:34.414Z,12.80
2023-03-05T04:03:09.130Z,13.00
2023-03-05T04:03:42.552Z,13.50
2023-03-05T04:04:16.262Z,12.60
2023-03-05T04:04:49.742Z,13.00
2023-03-05T04:05:23.249Z,14.80
2023-03-05T04:05:56.644Z,13.70
2023-03-05T04:06:30.078Z,13.30
2023-03-05T04:07:03.769Z,13.40
2023-03-05T04:07:37.190Z,12.40
2023-03-05T04:08:12.349Z,14.90
2023-03-05T04:08:45.996Z,10.60
2023-03-05T04:09:19.473Z,14.20
2023-03-05T04:09:53.078Z,14.60
2023-03-05T04:10:27.030Z,14.50
2023-03-05T04:11:02.307Z,13.90
2023-03-05T04:11:37.108Z,10.50
2023-03-05T04:12:11.367Z,15.10
2023-03-05T04:12:46.396Z,13.90
2023-03-05T04:13:19.824Z,11.40
2023-03-05T04:13:53.307Z,13.80
2023-03-05T04:14:27.616Z,12.70
2023-03-05T04:15:00.901Z,13.80
2023-03-05T04:15:34.592Z,13.30
2023-03-05T04:16:08.366Z,13.10
2023-03-05T04:16:41.920Z,14.70
2023-03-05T04:17:16.339Z,15.10
2023-03-05T04:17:49.752Z,13.40
2023-03-05T04:18:23.735Z,13.80
2023-03-05T04:18:57.891Z,12.20
2023-03-05T04:19:33.982Z,12.00
2023-03-05T04:20:10.550Z,13.00
2023-03-05T04:20:44.047Z,13.30
2023-03-05T04:21:17.657Z,14.30
2023-03-05T04:21:51.198Z,11.00
2023-03-05T04:22:24.821Z,13.90
2023-03-05T04:22:58.221Z,13.40
2023-03-05T04:23:31.745Z,15.40
2023-03-05T04:24:05.401Z,15.80
2023-03-05T04:24:39.312Z,14.00
2023-03-05T04:25:12.704Z,15.00
2023-03-05T04:25:46.179Z,15.90
2023-03-05T04:26:19.533Z,15.60
2023-03-05T04:26:53.671Z,15.80
2023-03-05T04:27:28.255Z,15.50
2023-03-05T04:28:01.700Z,12.60
2023-03-05T04:28:36.990Z,16.40
2023-03-05T04:29:12.612Z,14.40
2023-03-05T04:29:46.050Z,13.40
2023-03-05T04:30:19.621Z,16.10
2023-03-05T04:30:53.265Z,15.20
2023-03-05T04:31:26.940Z,12.60
2023-03-05T04:32:03.567Z,15.80
2023-03-05T04:32:37.242Z,15.50
2023-03-05T04:33:10.964Z,16.00
2023-03-05T04:33:44.462Z,11.90
2023-03-05T04:34:17.968Z,14.30
2023-03-05T04:34:51.494Z,14.60
2023-03-05T04:35:25.136Z,14.20
2023-03-05T04:35:59.692Z,15.40
2023-03-05T04:36:33.164Z,14.70
2023-03-05T04:37:06.656Z,14.10
2023-03-05T04:37:40.233Z,15.20
2023-03-05T04:38:13.941Z,13.60
2023-03-05T04:38:47.437Z,15.80
2023-03-05T04:39:23.954Z,12.10
2023-03-05T04:39:57.368Z,11.80
2023-03-05T04:40:30.998Z,15.40
2023-03-05T04:41:04.602Z,15.10
2023-03-05T04:41:38.006Z,16.40
2023-03-05T04:42:11.548Z,17.30
2023-03-05T04:42:45.062Z,12.70
2023-03-05T04:43:18.610Z,15.50
2023-03-05T04:43:52.068Z,16.70
2023-03-05T04:44:26.392Z,15.20
2023-03-05T04:45:00.004Z,16.70
2023-03-05T04:45:34.255Z,16.70
2023-03-05T04:46:07.805Z,15.90
2023-03-05T04:46:41.622Z,13.40
2023-03-05T04:47:15.763Z,14.30
2023-03-05T04:47:51.787Z,16.80
2023-03-05T04:48:26.508Z,14.30
2023-03-05T04:49:00.199Z,15.40
2023-03-05T04:49:33.736Z,17.30
2023-03-05T04:50:07.771Z,14.90
2023-03-05T04:50:41.356Z,16.20
2023-03-05T04:51:14.856Z,15.60
2023-03-05T04:51:48.336Z,17.50
2023-03-05T04:52:22.154Z,14.90
2023-03-05T04:52:57.502Z,13.80
2023-03-05T04:53:30.980Z,15.30
2023-03-05T04:54:05.319Z,14.90
2023-03-05T04:54:39.185Z,15.30
2023-03-05T04:55:15.388Z,16.30
2023-03-05T04:55:53.428Z,16.30
2023-03-05T04:56:27.057Z,17.20
2023-03-05T04:57:00.500Z,15.90
2023-03-05T04:57:33.993Z,15.70
2023-03-05T04:58:07.421Z,16.20
2023-03-05T04:58:43.600Z,16.30
2023-03-05T04:59:16.981Z,16.60
2023-03-05T04:59:50.448Z,15.60
2023-03-05T05:00:24.137Z,16.10
2023-03-05T05:01:05.886Z,15.70
2023-03-05T05:01:39.528Z,16.30
2023-03-05T05:02:13.203Z,13.60
2023-03-05T05:02:49.019Z,14.70
2023-03-05T05:03:22.657Z,13.70
2023-03-05T05:03:56.137Z,16.20
2023-03-05T05:04:30.184Z,17.70
2023-03-05T05:05:03.804Z,16.00
2023-03-05T05:05:37.940Z,17.10
2023-03-05T05:06:12.258Z,16.80
2023-03-05T05:06:45.744Z,14.80
2023-03-05T05:07:19.209Z,17.70
2023-03-05T05:07:57.430Z,16.80
2023-03-05T05:08:31.422Z,13.70
2023-03-05T05:09:04.894Z,15.40
2023-03-05T05:09:39.664Z,18.30
2023-03-05T05:10:14.784Z,16.50
2023-03-05T05:11:03.863Z,16.60
2023-03-05T05:11:37.414Z,17.60
2023-03-05T05:12:10.932Z,14.30
2023-03-05T05:12:44.571Z,16.70
2023-03-05T05:13:18.065Z,17.50
2023-03-05T05:13:51.472Z,16.20
2023-03-05T05:14:25.213Z,17.40
2023-03-05T05:14:58.671Z,15.40
2023-03-05T05:15:32.555Z,14.70
2023-03-05T05:16:09.670Z,18.20
2023-03-05T05:16:43.268Z,16.90
2023-03-05T05:17:16.676Z,16.70
2023-03-05T05:17:50.185Z,17.60
2023-03-05T05:18:24.316Z,19.10
2023-03-05T05:18:57.771Z,14.40
2023-03-05T05:19:35.679Z,15.40
2023-03-05T05:20:11.739Z,14.70
2023-03-05T05:20:45.174Z,17.00
2023-03-05T05:21:20.633Z,16.40
2023-03-05T05:21:53.996Z,14.10
2023-03-05T05:22:29.460Z,16.20
2023-03-05T05:23:02.841Z,18.90
2023-03-05T05:23:45.106Z,18.60
2023-03-05T05:24:24.518Z,16.80
2023-03-05T05:24:58.064Z,18.50
2023-03-05T05:25:31.617Z,17.20
2023-03-05T05:26:07.354Z,19.30
2023-03-05T05:26:40.943Z,19.70
2023-03-05T05:27:14.541Z,18.40
2023-03-05T05:27:51.523Z,16.50
2023-03-05T05:28:25.166Z,18.10
2023-03-05T05:28:58.644Z,16.80
2023-03-05T05:29:32.020Z,19.50
2023-03-05T05:30:06.219Z,17.70
2023-03-05T05:30:39.816Z,17.90
2023-03-05T05:31:16.131Z,20.20
2023-03-05T05:31:51.610Z,18.20
2023-03-05T05:32:25.538Z,19.40
2023-03-05T05:32:59.026Z,18.20
2023-03-05T05:33:32.463Z,18.60
2023-03-05T05:34:05.945Z,17.80
2023-03-05T05:34:42.257Z,18.20
2023-03-05T05:35:15.729Z,18.20
2023-03-05T05:35:50.893Z,20.80
2023-03-05T05:36:26.105Z,18.00
2023-03-05T05:36:59.651Z,19.70
2023-03-05T05:37:33.063Z,20.30
2023-03-05T05:38:06.670Z,18.70
2023-03-05T05:38:40.288Z,17.20
2023-03-05T05:39:18.133Z,16.80
2023-03-05T05:39:53.223Z,18.30
2023-03-05T05:40:26.735Z,15.40
2023-03-05T05:41:09.597Z,19.30
2023-03-05T05:41:46.622Z,16.00
2023-03-05T05:42:22.680Z,18.80
2023-03-05T05:42:56.224Z,18.10
2023-03-05T05:43:30.009Z,19.90
2023-03-05T05:44:03.609Z,20.10
2023-03-05T05:44:42.205Z,19.20
2023-03-05T05:45:16.355Z,17.90
2023-03-05T05:45:49.954Z,17.80
2023-03-05T05:46:24.914Z,19.00
2023-03-05T05:46:58.475Z,20.70
2023-03-05T05:47:32.190Z,15.40
2023-03-05T05:48:06.107Z,20.80
2023-03-05T05:48:39.636Z,19.00
2023-03-05T05:49:13.102Z,20.50
2023-03-05T05:49:46.815Z,18.80
2023-03-05T05:50:20.932Z,17.90
2023-03-05T05:50:54.673Z,20.60
2023-03-05T05:51:28.046Z,18.80
2023-03-05T05:52:01.575Z,20.20
2023-03-05T05:52:35.667Z,13.20
2023-03-05T05:53:13.274Z,16.60
2023-03-05T05:53:47.813Z,16.90
2023-03-05T05:54:21.297Z,18.80
2023-03-05T05:54:54.752Z,17.60
2023-03-05T05:55:28.481Z,19.20
2023-03-05T05:56:08.463Z,20.80
2023-03-05T05:56:42.417Z,18.40
2023-03-05T05:57:15.963Z,18.10
2023-03-05T05:57:49.597Z,21.20
2023-03-05T05:58:23.313Z,20.90
2023-03-05T05:58:58.900Z,19.60
2023-03-05T05:59:32.490Z,18.90
2023-03-05T06:00:10.064Z,18.50
2023-03-05T06:00:46.134Z,19.80
2023-03-05T06:01:24.224Z,17.80
2023-03-05T06:01:59.846Z,18.60
2023-03-05T06:02:34.133Z,19.60
2023-03-05T06:03:08.117Z,20.90
2023-03-05T06:03:41.797Z,17.70
2023-03-05T06:04:15.338Z,19.30
2023-03-05T06:04:49.059Z,20.80
2023-03-05T06:05:23.103Z,20.60
2023-03-05T06:05:57.106Z,20.30
2023-03-05T06:06:30.736Z,19.70
2023-03-05T06:07:04.800Z,18.50
2023-03-05T06:07:38.398Z,21.00
2023-03-05T06:08:15.001Z,21.40
2023-03-05T06:08:50.617Z,20.80
2023-03-05T06:09:24.068Z,19.30
2023-03-05T06:09:57.902Z,19.40
2023-03-05T06:10:34.001Z,18.40
2023-03-05T06:11:07.918Z,18.60
2023-03-05T06:11:41.728Z,18.10
2023-03-05T06:12:15.158Z,18.60
2023-03-05T06:12:48.596Z,18.10
2023-03-05T06:13:22.338Z,18.70
2023-03-05T06:14:03.434Z,20.70
2023-03-05T06:14:40.043Z,20.80
2023-03-05T06:15:13.538Z,20.60
2023-03-05T06:15:59.438Z,17.80
2023-03-05T06:16:32.970Z,19.80
2023-03-05T06:17:11.109Z,20.80
2023-03-05T06:17:44.850Z,20.60
2023-03-05T06:18:19.464Z,18.70
2023-03-05T06:18:53.358Z,18.30
2023-03-05T06:19:28.377Z,21.20
2023-03-05T06:20:02.205Z,22.10
2023-03-05T06:20:40.171Z,22.50
2023-03-05T06:21:16.997Z,21.00
2023-03-05T06:21:50.547Z,21.00
2023-03-05T06:22:24.114Z,16.30
2023-03-05T06:22:57.632Z,16.40
2023-03-05T06:23:31.604Z,21.90
2023-03-05T06:24:06.342Z,22.10
2023-03-05T06:24:39.929Z,17.90
2023-03-05T06:25:13.567Z,22.00
2023-03-05T06:25:47.083Z,22.80
2023-03-05T06:26:22.569Z,22.20
2023-03-05T06:26:56.063Z,21.50
2023-03-05T06:27:29.550Z,16.70
2023-03-05T06:28:04.322Z,19.20
2023-03-05T06:28:37.834Z,19.50
2023-03-05T06:29:11.283Z,16.20
2023-03-05T06:29:44.674Z,21.90
2023-03-05T06:30:18.332Z,21.40
2023-03-05T06:30:59.597Z,22.20
2023-03-05T06:31:35.566Z,21.50
2023-03-05T06:32:10.446Z,18.20
2023-03-05T06:32:44.050Z,16.50
2023-03-05T06:33:17.866Z,21.40
2023-03-05T06:33:52.868Z,19.30
2023-03-05T06:34:26.310Z,17.30
2023-03-05T06:34:59.791Z,19.10
2023-03-05T06:35:34.941Z,19.00
2023-03-05T06:36:11.410Z,21.40
2023-03-05T06:36:45.008Z,19.00
2023-03-05T06:37:18.566Z,18.80
2023-03-05T06:37:51.990Z,20.40
2023-03-05T06:38:26.061Z,21.20
2023-03-05T06:38:59.719Z,22.80
2023-03-05T06:39:33.704Z,22.20
2023-03-05T06:40:08.948Z,21.80
2023-03-05T06:40:42.476Z,15.30
2023-03-05T06:41:22.306Z,21.20
2023-03-05T06:41:55.781Z,22.50
2023-03-05T06:42:29.204Z,19.50
2023-03-05T06:43:02.633Z,22.30
2023-03-05T06:43:40.864Z,22.20
2023-03-05T06:44:14.328Z,20.80
2023-03-05T06:44:48.427Z,19.60
2023-03-05T06:45:22.009Z,20.00
2023-03-05T06:46:03.779Z,20.40
2023-03-05T06:46:40.495Z,21.90
2023-03-05T06:47:14.837Z,21.60
2023-03-05T06:47:48.233Z,18.70
2023-03-05T06:48:24.405Z,20.50
2023-03-05T06:49:00.075Z,22.60
2023-03-05T06:49:33.780Z,24.00
2023-03-05T06:50:11.786Z,23.20
2023-03-05T06:50:45.325Z,24.00
2023-03-05T06:51:23.144Z,23.70
2023-03-05T06:51:56.480Z,20.30
2023-03-05T06:52:30.008Z,23.50
2023-03-05T06:53:03.575Z,23.20
2023-03-05T06:53:37.161Z,19.50
2023-03-05T06:54:26.958Z,20.80
2023-03-05T06:55:00.795Z,23.10
2023-03-05T06:55:39.933Z,23.20
2023-03-05T06:56:14.304Z,23.30
2023-03-05T06:56:47.793Z,19.00
2023-03-05T06:57:21.253Z,21.50
2023-03-05T06:57:54.939Z,22.20
2023-03-05T06:58:28.418Z,18.60
2023-03-05T06:59:01.859Z,22.50
2023-03-05T06:59:35.413Z,22.90
2023-03-05T07:00:10.472Z,23.10
2023-03-05T07:00:44.800Z,22.40
2023-03-05T07:01:19.603Z,23.50
2023-03-05T07:01:53.209Z,19.00
2023-03-05T07:02:26.694Z,19.90
2023-03-05T07:03:00.145Z,18.40
2023-03-05T07:03:35.283Z,20.00
2023-03-05T07:04:09.159Z,21.40
2023-03-05T07:04:42.598Z,22.00
2023-03-05T07:05:16.655Z,23.40
2023-03-05T07:05:50.125Z,17.90
2023-03-05T07:06:23.736Z,21.00
2023-03-05T07:06:58.610Z,21.20
2023-03-05T07:07:33.164Z,22.40
2023-03-05T07:08:06.788Z,21.20
2023-03-05T07:08:40.469Z,22.70
2023-03-05T07:09:15.740Z,23.00
2023-03-05T07:09:50.549Z,20.00
2023-03-05T07:10:24.020Z,18.90
2023-03-05T07:10:57.639Z,22.60
2023-03-05T07:11:31.620Z,21.30
2023-03-05T07:12:05.424Z,22.20
2023-03-05T07:12:39.023Z,16.70
2023-03-05T07:13:12.601Z,23.80
2023-03-05T07:13:48.125Z,23.20
2023-03-05T07:14:21.824Z,21.80
2023-03-05T07:14:55.319Z,20.10
2023-03-05T07:15:28.736Z,17.20
2023-03-05T07:16:09.630Z,23.60
2023-03-05T07:16:43.132Z,22.90
2023-03-05T07:17:16.596Z,24.50
2023-03-05T07:17:50.190Z,23.10
2023-03-05T07:18:26.596Z,19.60
2023-03-05T07:19:03.023Z,21.10
2023-03-05T07:19:38.123Z,21.30
2023-03-05T07:20:12.184Z,20.30
2023-03-05T07:20:45.662Z,23.30
2023-03-05T07:21:25.116Z,23.40
2023-03-05T07:21:58.555Z,23.70
2023-03-05T07:22:32.209Z,22.30
2023-03-05T07:23:05.904Z,22.40
2023-03-05T07:23:39.320Z,21.50
2023-03-05T07:24:13.733Z,24.00
2023-03-05T07:24:47.464Z,23.40
2023-03-05T07:25:21.820Z,23.00
2023-03-05T07:25:55.190Z,15.80
2023-03-05T07:26:34.802Z,21.40
2023-03-05T07:27:08.225Z,22.70
2023-03-05T07:27:42.233Z,21.90
2023-03-05T07:28:15.759Z,19.70
2023-03-05T07:28:49.322Z,20.90
2023-03-05T07:29:23.887Z,18.40
2023-03-05T07:29:57.267Z,22.50
2023-03-05T07:30:30.681Z,17.60
2023-03-05T07:31:07.400Z,21.20
2023-03-05T07:31:40.927Z,19.60
2023-03-05T07:32:14.481Z,23.60